Terminal Aerodrome Forecast
Issued by NWS Topeka, KS

Home | Current Version | Previous Version | Text Only | Print | Product List | Glossary Off
Versions: 1 2 3 4 5 6 7 8 9 10 11 12 13 14 15 16 17 18 19 20 21

586
FTUS43 KTOP 191044 AAB
TAFTOP
TAF AMD
KTOP 191044Z 1911/2006 00000KT 6SM BR SKC
      TEMPO 1911/1913 1 1/2SM BR VV003
     FM191300 17006KT P6SM SKC=

USA.gov is the U.S. government's official web portal to all federal, state and local government web resources and services.